Avon, Montana
Current Conditions -  °F | °C
As of 6:53 PM on Saturday 22 Nov 2014 (Local Time) from KHLN Reporting Station
Few Clouds Few Clouds  
Wind Chill: -1°   Ceiling: Unl
Heat Index:   Visibility: 10mi
Dew Point: -6°   Wind: 12mph
Humidity: 52%   Direction: 250°WSW
Pressure: 29.63"   Gusts: NA
Location:  46.59°N, 112.61°W
Report Text: KHLN 230153Z 25010KT 10SM FEW050 03/M06 A2963 RMK AO2 SLP059 T00281061
Loading
Personal Weather Stations






























Interactive Weather Map New forecast layout! Learn more

10-Day Weather Forecast

Advertisements
Track Severe Weather on mobile